createdAt,value
2022-11-21T00:00:54.164Z,343.95
2022-11-21T00:03:22.028Z,337.80
2022-11-21T00:05:49.839Z,359.65
2022-11-21T00:08:21.112Z,369.38
2022-11-21T00:10:48.208Z,240.37
2022-11-21T00:13:19.903Z,292.98
2022-11-21T00:15:46.978Z,297.83
2022-11-21T00:18:14.273Z,324.50
2022-11-21T00:20:44.042Z,332.20
2022-11-21T00:23:11.277Z,316.65
2022-11-21T00:25:38.722Z,318.35
2022-11-21T00:28:06.146Z,297.98
2022-11-21T00:30:32.872Z,298.20
2022-11-21T00:32:59.718Z,318.33
2022-11-21T00:35:26.451Z,311.30
2022-11-21T00:37:53.082Z,308.15
2022-11-21T00:40:22.659Z,399.50
2022-11-21T00:42:49.177Z,410.17
2022-11-21T00:45:21.172Z,422.55
2022-11-21T00:47:50.544Z,391.80
2022-11-21T00:50:17.225Z,352.55
2022-11-21T00:52:43.753Z,340.77
2022-11-21T00:55:10.252Z,332.90
2022-11-21T00:57:36.983Z,284.27
2022-11-21T01:00:05.238Z,289.05
2022-11-21T01:02:32.751Z,299.48
2022-11-21T01:04:59.522Z,334.73
2022-11-21T01:07:26.433Z,335.40
2022-11-21T01:09:53.012Z,298.55
2022-11-21T01:12:19.583Z,303.55
2022-11-21T01:14:46.139Z,280.77
2022-11-21T01:17:12.717Z,288.92
2022-11-21T01:19:39.262Z,308.92
2022-11-21T01:22:05.791Z,338.58
2022-11-21T01:24:32.290Z,353.10
2022-11-21T01:26:58.887Z,309.42
2022-11-21T01:29:25.445Z,285.95
2022-11-21T01:31:52.078Z,285.85
2022-11-21T01:34:18.710Z,255.63
2022-11-21T01:36:45.398Z,278.42
2022-11-21T01:39:12.194Z,285.25
2022-11-21T01:41:42.572Z,264.80
2022-11-21T01:44:18.856Z,293.92
2022-11-21T01:46:45.795Z,305.90
2022-11-21T01:49:17.884Z,323.02
2022-11-21T01:52:02.786Z,310.85
2022-11-21T01:54:36.275Z,332.20
2022-11-21T01:57:08.865Z,322.23
2022-11-21T01:59:44.638Z,323.25
2022-11-21T02:02:13.590Z,342.38
2022-11-21T02:04:42.833Z,340.20
2022-11-21T02:07:11.952Z,315.45
2022-11-21T02:09:42.764Z,297.05
2022-11-21T02:12:19.514Z,324.40
2022-11-21T02:14:47.538Z,289.83
2022-11-21T02:17:14.051Z,298.33
2022-11-21T02:19:56.444Z,366.20
2022-11-21T02:22:44.356Z,311.23
2022-11-21T02:25:28.144Z,325.20
2022-11-21T02:28:01.375Z,290.17
2022-11-21T02:30:30.919Z,307.25
2022-11-21T02:32:57.605Z,315.05
2022-11-21T02:35:25.010Z,302.73
2022-11-21T02:37:57.882Z,296.80
2022-11-21T02:40:29.420Z,302.63
2022-11-21T02:43:09.783Z,219.73
2022-11-21T02:45:42.569Z,291.08
2022-11-21T02:48:10.151Z,314.80
2022-11-21T02:50:39.550Z,289.10
2022-11-21T02:53:09.074Z,306.90
2022-11-21T02:55:35.868Z,322.80
2022-11-21T02:58:05.096Z,330.73
2022-11-21T03:00:32.594Z,323.33
2022-11-21T03:02:59.184Z,315.15
2022-11-21T03:05:25.854Z,311.85
2022-11-21T03:07:52.348Z,310.08
2022-11-21T03:10:19.071Z,314.10
2022-11-21T03:12:45.748Z,311.10
2022-11-21T03:17:34.649Z,310.15
2022-11-21T03:20:01.237Z,326.15
2022-11-21T03:22:28.350Z,304.33
2022-11-21T03:24:54.961Z,262.02
2022-11-21T03:27:21.463Z,291.27
2022-11-21T03:29:48.130Z,280.38
2022-11-21T03:32:14.678Z,273.55
2022-11-21T03:34:41.687Z,271.52
2022-11-21T03:37:08.514Z,278.35
2022-11-21T03:39:35.141Z,267.77
2022-11-21T03:42:01.636Z,285.42
2022-11-21T03:44:29.891Z,264.40
2022-11-21T03:46:56.662Z,261.58
2022-11-21T03:49:23.242Z,245.55
2022-11-21T03:51:49.909Z,303.45
2022-11-21T03:54:16.474Z,291.80
2022-11-21T03:56:42.990Z,260.67
2022-11-21T03:59:09.567Z,260.55
2022-11-21T04:01:37.100Z,266.85
2022-11-21T04:04:05.218Z,247.18
2022-11-21T04:06:31.835Z,227.95
2022-11-21T04:08:58.553Z,237.35
2022-11-21T04:11:25.172Z,256.55
2022-11-21T04:13:52.799Z,230.90
2022-11-21T04:16:20.007Z,243.00
2022-11-21T04:18:46.770Z,248.05
2022-11-21T04:21:13.294Z,277.77
2022-11-21T04:23:39.890Z,258.83
2022-11-21T04:26:06.374Z,272.73
2022-11-21T04:28:33.031Z,264.13
2022-11-21T04:31:10.861Z,284.90
2022-11-21T04:33:39.228Z,273.63
2022-11-21T04:36:07.994Z,277.95
2022-11-21T04:38:34.586Z,279.67
2022-11-21T04:41:01.107Z,282.58
2022-11-21T04:43:27.718Z,280.08
2022-11-21T04:45:54.254Z,282.05
2022-11-21T04:48:20.878Z,289.60
2022-11-21T04:50:47.567Z,280.17
2022-11-21T04:53:14.204Z,239.68
2022-11-21T04:55:40.722Z,284.75
2022-11-21T04:58:07.392Z,280.63
2022-11-21T05:00:34.696Z,298.45
2022-11-21T05:03:03.705Z,321.35
2022-11-21T05:05:30.273Z,345.83
2022-11-21T05:07:57.191Z,319.05
2022-11-21T05:10:23.935Z,339.52
2022-11-21T05:13:16.965Z,350.27
2022-11-21T05:15:44.278Z,342.55
2022-11-21T05:18:11.086Z,337.25
2022-11-21T05:20:37.698Z,338.85
2022-11-21T05:23:04.439Z,320.00
2022-11-21T05:25:30.985Z,323.05
2022-11-21T05:27:57.812Z,297.88
2022-11-21T05:30:24.615Z,325.88
2022-11-21T05:32:51.147Z,290.58
2022-11-21T05:35:19.789Z,319.80
2022-11-21T05:37:46.325Z,300.67
2022-11-21T05:40:12.969Z,323.63
2022-11-21T05:43:00.035Z,313.08
2022-11-21T05:45:26.683Z,286.98
2022-11-21T05:47:53.184Z,290.42
2022-11-21T05:50:19.754Z,298.10
2022-11-21T05:52:46.261Z,315.98
2022-11-21T05:55:12.891Z,309.58
2022-11-21T05:57:39.430Z,305.25
2022-11-21T06:00:06.430Z,320.27
2022-11-21T06:02:51.466Z,312.67
2022-11-21T06:05:18.188Z,365.00
2022-11-21T06:07:44.870Z,315.63
2022-11-21T06:10:11.647Z,330.33
2022-11-21T06:12:38.151Z,304.63
2022-11-21T06:15:04.901Z,348.63
2022-11-21T06:17:32.347Z,467.15
2022-11-21T06:20:00.148Z,416.50
2022-11-21T06:22:26.646Z,383.77
2022-11-21T06:24:53.282Z,303.77
2022-11-21T06:27:19.860Z,440.95
2022-11-21T06:29:46.431Z,404.02
2022-11-21T06:32:13.048Z,346.38
2022-11-21T06:34:39.719Z,342.42
2022-11-21T06:37:06.506Z,456.17
2022-11-21T06:39:33.144Z,407.88
2022-11-21T06:42:01.010Z,744.78
2022-11-21T06:44:27.784Z,456.48
2022-11-21T06:46:54.996Z,375.88
2022-11-21T06:49:22.321Z,541.97
2022-11-21T06:51:48.962Z,601.65
2022-11-21T06:54:17.028Z,410.85
2022-11-21T06:56:44.137Z,458.85
2022-11-21T06:59:11.305Z,523.70
2022-11-21T07:01:40.251Z,488.40
2022-11-21T07:04:06.874Z,379.30
2022-11-21T07:06:34.836Z,451.17
2022-11-21T07:11:48.086Z,283.83
2022-11-21T07:14:14.678Z,321.52
2022-11-21T07:16:41.255Z,355.63
2022-11-21T07:19:07.787Z,283.20
2022-11-21T07:21:34.587Z,429.52
2022-11-21T07:24:01.135Z,286.67
2022-11-21T07:26:27.694Z,291.48
2022-11-21T07:28:54.286Z,240.18
2022-11-21T07:31:20.859Z,254.65
2022-11-21T07:33:47.927Z,246.52
2022-11-21T07:36:14.614Z,245.88
2022-11-21T07:38:41.810Z,238.82
2022-11-21T07:41:09.607Z,237.63
2022-11-21T07:43:36.320Z,258.25
2022-11-21T07:46:03.512Z,269.48
2022-11-21T07:48:30.140Z,278.23
2022-11-21T07:50:56.979Z,270.25
2022-11-21T07:53:24.151Z,285.40
2022-11-21T07:55:50.707Z,254.98
2022-11-21T07:58:17.953Z,260.80
2022-11-21T08:00:44.635Z,253.65
2022-11-21T08:03:12.996Z,277.67
2022-11-21T08:05:43.925Z,302.60
2022-11-21T08:08:13.990Z,323.52
2022-11-21T08:10:45.388Z,278.13
2022-11-21T08:13:13.115Z,253.20
2022-11-21T08:15:39.931Z,236.43
2022-11-21T08:18:10.121Z,254.32
2022-11-21T08:20:36.878Z,262.98
2022-11-21T08:23:03.899Z,239.70
2022-11-21T08:25:30.698Z,239.93
2022-11-21T08:27:58.367Z,231.88
2022-11-21T08:30:25.519Z,225.57
2022-11-21T08:32:52.300Z,222.75
2022-11-21T08:35:19.576Z,229.27
2022-11-21T08:37:46.088Z,214.63
2022-11-21T08:40:12.758Z,198.18
2022-11-21T08:42:41.907Z,211.52
2022-11-21T08:45:09.007Z,203.02
2022-11-21T08:47:35.550Z,227.38
2022-11-21T08:50:07.338Z,225.10
2022-11-21T08:52:35.609Z,296.40
2022-11-21T08:55:02.241Z,231.65
2022-11-21T08:57:28.925Z,191.98
2022-11-21T08:59:55.666Z,202.05
2022-11-21T09:02:22.329Z,187.60
2022-11-21T09:04:49.258Z,194.57
2022-11-21T09:07:16.002Z,185.68
2022-11-21T09:09:42.515Z,182.85
2022-11-21T09:12:09.091Z,174.95
2022-11-21T09:14:53.978Z,180.55
2022-11-21T09:17:42.278Z,188.05
2022-11-21T09:20:09.470Z,175.95
2022-11-21T09:22:36.150Z,160.63
2022-11-21T09:25:02.808Z,168.68
2022-11-21T09:27:30.829Z,155.27
2022-11-21T09:32:23.411Z,154.57
2022-11-21T09:34:50.024Z,170.38
2022-11-21T09:37:16.600Z,174.20
2022-11-21T09:39:43.237Z,156.43
2022-11-21T09:42:24.783Z,170.25
2022-11-21T09:44:57.088Z,162.77
2022-11-21T09:47:26.752Z,162.27
2022-11-21T09:50:04.262Z,143.75
2022-11-21T09:52:40.394Z,162.32
2022-11-21T09:55:45.520Z,146.13
2022-11-21T09:58:20.920Z,159.20
2022-11-21T10:00:50.994Z,163.90
2022-11-21T10:03:22.483Z,162.32
2022-11-21T10:06:01.883Z,165.20
2022-11-21T10:08:37.102Z,151.93
2022-11-21T10:12:07.248Z,148.77
2022-11-21T10:15:25.268Z,142.45
2022-11-21T10:17:54.609Z,143.40
2022-11-21T10:20:42.990Z,136.40
2022-11-21T10:23:24.580Z,145.98
2022-11-21T10:25:59.903Z,140.10
2022-11-21T10:28:54.323Z,133.38
2022-11-21T10:31:21.629Z,136.15
2022-11-21T10:33:50.655Z,126.70
2022-11-21T10:36:56.364Z,142.88
2022-11-21T10:39:33.317Z,120.80
2022-11-21T10:42:26.416Z,126.60
2022-11-21T10:45:11.569Z,131.15
2022-11-21T10:47:38.170Z,123.68
2022-11-21T10:50:10.367Z,124.03
2022-11-21T10:52:49.297Z,118.22
2022-11-21T10:55:17.563Z,117.57
2022-11-21T10:57:47.824Z,130.93
2022-11-21T11:00:20.263Z,124.72
2022-11-21T11:02:55.900Z,113.70
2022-11-21T11:05:28.200Z,125.03
2022-11-21T11:10:34.690Z,125.32
2022-11-21T11:16:09.713Z,122.90
2022-11-21T11:19:01.970Z,131.18
2022-11-21T11:21:35.470Z,140.57
2022-11-21T11:24:11.327Z,113.32
2022-11-21T11:26:48.393Z,121.28
2022-11-21T11:29:15.544Z,118.70
2022-11-21T11:31:43.342Z,111.13
2022-11-21T11:34:15.033Z,117.93
2022-11-21T11:39:41.915Z,127.95
2022-11-21T11:42:45.475Z,124.22
2022-11-21T11:45:30.543Z,126.90
2022-11-21T11:48:04.500Z,121.68
2022-11-21T11:50:39.779Z,117.85
2022-11-21T11:53:15.523Z,130.07
2022-11-21T11:55:47.419Z,154.48
2022-11-21T11:58:36.651Z,118.57
2022-11-21T12:01:19.439Z,123.50
2022-11-21T12:03:58.868Z,141.40
2022-11-21T12:06:57.403Z,127.63
2022-11-21T12:09:34.902Z,129.27
2022-11-21T12:12:18.656Z,135.05
2022-11-21T12:15:30.291Z,146.82
2022-11-21T12:18:15.269Z,153.88
2022-11-21T12:20:57.156Z,136.13
2022-11-21T12:23:30.699Z,138.38
2022-11-21T12:26:05.077Z,131.43
2022-11-21T12:28:55.305Z,128.85
2022-11-21T12:31:57.288Z,136.93
2022-11-21T12:34:34.658Z,133.90
2022-11-21T12:37:48.040Z,124.90
2022-11-21T12:40:39.215Z,126.07
2022-11-21T12:43:27.338Z,123.68
2022-11-21T12:46:33.070Z,124.38
2022-11-21T12:49:38.995Z,117.32
2022-11-21T12:52:43.578Z,138.68
2022-11-21T12:55:35.723Z,114.40
2022-11-21T12:58:25.695Z,124.65
2022-11-21T13:00:55.095Z,132.35
2022-11-21T13:03:59.086Z,135.25
2022-11-21T13:06:32.760Z,133.82
2022-11-21T13:09:02.743Z,139.40
2022-11-21T13:12:02.775Z,130.35
2022-11-21T13:14:32.966Z,126.85
2022-11-21T13:17:18.183Z,133.43
2022-11-21T13:20:06.132Z,120.70
2022-11-21T13:22:35.588Z,122.68
2022-11-21T13:25:12.446Z,119.82
2022-11-21T13:27:40.875Z,145.90
2022-11-21T13:30:07.311Z,145.82
2022-11-21T13:32:54.355Z,141.18
2022-11-21T13:35:20.896Z,122.82
2022-11-21T13:37:50.232Z,129.82
2022-11-21T13:40:29.985Z,131.30
2022-11-21T13:43:31.887Z,134.57
2022-11-21T13:46:01.402Z,128.00
2022-11-21T13:48:38.635Z,131.18
2022-11-21T13:51:16.334Z,136.63
2022-11-21T13:54:13.876Z,132.90
2022-11-21T13:56:55.334Z,145.07
2022-11-21T14:00:00.481Z,136.70
2022-11-21T14:02:54.232Z,141.55
2022-11-21T14:05:38.748Z,136.40
2022-11-21T14:08:26.807Z,123.80
2022-11-21T14:10:55.563Z,132.27
2022-11-21T14:13:25.358Z,131.13
2022-11-21T14:16:00.974Z,128.48
2022-11-21T14:18:27.923Z,416.17
2022-11-21T14:20:57.315Z,215.07
2022-11-21T14:23:26.466Z,252.77
2022-11-21T14:25:59.999Z,357.10
2022-11-21T14:28:31.651Z,282.85
2022-11-21T14:31:03.433Z,171.90
2022-11-21T14:33:38.187Z,145.50
2022-11-21T14:36:13.623Z,158.45
2022-11-21T14:39:02.147Z,163.48
2022-11-21T14:41:37.023Z,209.52
2022-11-21T14:44:07.171Z,454.98
2022-11-21T14:46:41.527Z,598.15
2022-11-21T14:49:17.219Z,228.75
2022-11-21T14:52:01.424Z,719.05
2022-11-21T14:54:32.521Z,706.05
2022-11-21T14:57:01.800Z,379.80
2022-11-21T14:59:55.172Z,675.95
2022-11-21T15:02:24.320Z,997.05
2022-11-21T15:04:53.255Z,486.30
2022-11-21T15:07:31.620Z,537.38
2022-11-21T15:10:28.723Z,759.67
2022-11-21T15:12:48.327Z,576.63
2022-11-21T15:15:36.255Z,713.70
2022-11-21T15:20:57.112Z,717.63
2022-11-21T15:23:34.206Z,982.22
2022-11-21T15:26:01.825Z,586.08
2022-11-21T15:28:30.215Z,481.45
2022-11-21T15:31:19.623Z,491.38
2022-11-21T15:37:14.400Z,129.38
2022-11-21T15:39:50.238Z,131.40
2022-11-21T15:42:32.642Z,149.98
2022-11-21T15:44:59.253Z,190.43
2022-11-21T15:47:25.747Z,248.30
2022-11-21T15:49:52.462Z,275.40
2022-11-21T15:52:18.968Z,252.45
2022-11-21T15:54:47.130Z,256.40
2022-11-21T15:57:16.791Z,249.40
2022-11-21T15:59:44.699Z,253.65
2022-11-21T16:02:13.488Z,369.08
2022-11-21T16:04:41.684Z,414.63
2022-11-21T16:07:08.343Z,298.40
2022-11-21T16:09:36.106Z,249.77
2022-11-21T16:12:02.896Z,212.38
2022-11-21T16:14:29.506Z,213.80
2022-11-21T16:16:56.006Z,208.98
2022-11-21T16:19:22.600Z,252.90
2022-11-21T16:21:49.122Z,243.68
2022-11-21T16:24:16.226Z,252.00
2022-11-21T16:26:42.807Z,244.77
2022-11-21T16:29:11.114Z,249.15
2022-11-21T16:31:37.803Z,235.90
2022-11-21T16:34:04.477Z,243.20
2022-11-21T16:36:32.237Z,228.93
2022-11-21T16:39:07.890Z,233.63
2022-11-21T16:41:37.186Z,220.23
2022-11-21T16:44:03.806Z,216.57
2022-11-21T16:46:30.460Z,197.82
2022-11-21T16:49:02.269Z,199.63
2022-11-21T16:51:29.619Z,191.75
2022-11-21T16:53:57.260Z,231.85
2022-11-21T16:56:24.388Z,209.02
2022-11-21T16:58:50.974Z,239.18
2022-11-21T17:01:23.601Z,289.65
2022-11-21T17:03:51.283Z,276.15
2022-11-21T17:06:23.742Z,273.88
2022-11-21T17:08:50.583Z,248.90
2022-11-21T17:11:22.514Z,213.00
2022-11-21T17:13:50.584Z,196.95
2022-11-21T17:16:21.415Z,175.20
2022-11-21T17:18:52.168Z,214.07
2022-11-21T17:21:18.799Z,243.02
2022-11-21T17:23:45.881Z,239.52
2022-11-21T17:26:16.362Z,225.38
2022-11-21T17:28:45.960Z,244.57
2022-11-21T17:31:15.029Z,248.85
2022-11-21T17:33:43.063Z,252.27
2022-11-21T17:36:14.430Z,240.23
2022-11-21T17:38:42.436Z,244.53
2022-11-21T17:41:11.566Z,282.52
2022-11-21T17:43:38.605Z,283.88
2022-11-21T17:46:09.947Z,287.15
2022-11-21T17:48:37.629Z,274.67
2022-11-21T17:51:11.222Z,227.05
2022-11-21T17:53:43.507Z,245.88
2022-11-21T17:58:41.043Z,230.48
2022-11-21T18:01:10.539Z,214.55
2022-11-21T18:03:37.180Z,199.23
2022-11-21T18:06:09.491Z,210.27
2022-11-21T18:11:04.947Z,167.95
2022-11-21T18:13:32.806Z,158.98
2022-11-21T18:16:04.987Z,153.20
2022-11-21T18:21:12.245Z,150.13
2022-11-21T18:23:39.238Z,156.25
2022-11-21T18:26:18.509Z,171.07
2022-11-21T18:28:45.134Z,165.52
2022-11-21T18:31:17.766Z,141.73
2022-11-21T18:33:47.738Z,126.50
2022-11-21T18:36:14.507Z,138.45
2022-11-21T18:38:56.477Z,139.98
2022-11-21T18:41:34.061Z,138.70
2022-11-21T18:44:04.692Z,127.68
2022-11-21T18:46:33.931Z,134.18
2022-11-21T18:49:04.840Z,140.88
2022-11-21T18:54:07.208Z,252.35
2022-11-21T18:56:35.515Z,288.55
2022-11-21T18:59:03.411Z,338.92
2022-11-21T19:01:31.707Z,330.52
2022-11-21T19:03:58.687Z,357.17
2022-11-21T19:06:26.793Z,345.40
2022-11-21T19:08:56.055Z,353.90
2022-11-21T19:11:25.402Z,323.42
2022-11-21T19:13:53.326Z,316.60
2022-11-21T19:16:24.255Z,330.63
2022-11-21T19:19:12.071Z,327.30
2022-11-21T19:21:39.580Z,319.63
2022-11-21T19:24:07.299Z,319.77
2022-11-21T19:26:33.905Z,276.90
2022-11-21T19:29:01.658Z,282.55
2022-11-21T19:31:28.456Z,272.92
2022-11-21T19:33:54.946Z,274.00
2022-11-21T19:36:23.436Z,246.63
2022-11-21T19:38:51.571Z,250.20
2022-11-21T19:41:25.330Z,221.43
2022-11-21T19:43:54.764Z,235.38
2022-11-21T19:46:23.640Z,241.40
2022-11-21T19:48:52.751Z,249.93
2022-11-21T19:51:21.131Z,239.93
2022-11-21T19:53:48.137Z,266.02
2022-11-21T19:56:16.759Z,284.35
2022-11-21T19:58:44.207Z,209.73
2022-11-21T20:01:16.718Z,171.57
2022-11-21T20:03:45.766Z,141.68
2022-11-21T20:06:25.253Z,136.20
2022-11-21T20:08:54.852Z,175.07
2022-11-21T20:11:22.710Z,176.38
2022-11-21T20:13:49.994Z,234.75
2022-11-21T20:16:19.772Z,212.48
2022-11-21T20:18:47.476Z,246.90
2022-11-21T20:21:15.088Z,229.07
2022-11-21T20:23:41.951Z,264.48
2022-11-21T20:26:09.900Z,353.38
2022-11-21T20:28:37.199Z,415.27
2022-11-21T20:31:16.016Z,409.77
2022-11-21T20:33:44.969Z,387.67
2022-11-21T20:36:18.883Z,387.77
2022-11-21T20:38:51.203Z,359.83
2022-11-21T20:44:32.358Z,330.33
2022-11-21T20:46:31.976Z,357.15
2022-11-21T20:49:01.207Z,384.08
2022-11-21T20:53:13.036Z,377.50
2022-11-21T20:54:14.894Z,387.80
2022-11-21T20:56:44.382Z,371.67
2022-11-21T20:59:12.233Z,380.67
2022-11-21T21:01:39.223Z,382.13
2022-11-21T21:04:06.276Z,346.77
2022-11-21T21:06:32.939Z,337.45
2022-11-21T21:08:59.683Z,301.55
2022-11-21T21:11:50.381Z,316.63
2022-11-21T21:14:12.826Z,320.05
2022-11-21T21:16:39.592Z,302.20
2022-11-21T21:19:06.192Z,328.63
2022-11-21T21:21:32.767Z,341.88
2022-11-21T21:24:01.749Z,291.52
2022-11-21T21:26:38.610Z,290.65
2022-11-21T21:29:09.702Z,277.77
2022-11-21T21:31:37.182Z,331.27
2022-11-21T21:34:03.803Z,469.52
2022-11-21T21:36:31.965Z,390.63
2022-11-21T21:39:00.668Z,379.05
2022-11-21T21:41:29.226Z,344.92
2022-11-21T21:43:57.453Z,334.83
2022-11-21T21:46:26.551Z,344.33
2022-11-21T21:48:55.895Z,400.80
2022-11-21T21:51:27.637Z,598.10
2022-11-21T21:53:56.102Z,474.27
2022-11-21T21:56:24.563Z,749.85
2022-11-21T21:58:51.662Z,724.40
2022-11-21T22:01:21.468Z,674.70
2022-11-21T22:03:51.908Z,722.58
2022-11-21T22:06:19.051Z,720.58
2022-11-21T22:08:47.729Z,565.80
2022-11-21T22:11:21.842Z,748.45
2022-11-21T22:13:52.975Z,687.20
2022-11-21T22:16:19.563Z,442.50
2022-11-21T22:18:46.245Z,392.80
2022-11-21T22:21:21.568Z,380.80
2022-11-21T22:24:17.813Z,492.55
2022-11-21T22:26:34.917Z,1539.55
2022-11-21T22:29:08.714Z,1015.60
2022-11-21T22:31:35.478Z,470.65
2022-11-21T22:34:02.057Z,468.65
2022-11-21T22:36:28.719Z,1618.95
2022-11-21T22:38:56.351Z,755.90
2022-11-21T22:41:25.654Z,1711.80
2022-11-21T22:43:57.623Z,1999.90
2022-11-21T22:46:26.957Z,1999.90
2022-11-21T22:48:53.490Z,1403.72
2022-11-21T22:51:23.150Z,843.33
2022-11-21T22:53:50.372Z,267.40
2022-11-21T22:56:19.980Z,274.27
2022-11-21T22:58:47.651Z,250.60
2022-11-21T23:01:17.279Z,543.17
2022-11-21T23:03:44.303Z,444.40
2022-11-21T23:06:19.761Z,345.30
2022-11-21T23:08:47.053Z,342.17
2022-11-21T23:11:16.383Z,467.52
2022-11-21T23:13:44.779Z,434.95
2022-11-21T23:16:11.855Z,432.42
2022-11-21T23:18:39.041Z,409.23
2022-11-21T23:21:06.600Z,274.17
2022-11-21T23:23:33.753Z,233.80
2022-11-21T23:26:00.969Z,306.95
2022-11-21T23:28:28.118Z,295.27
2022-11-21T23:30:54.728Z,313.95
2022-11-21T23:33:22.109Z,307.90
2022-11-21T23:35:48.943Z,370.65
2022-11-21T23:38:17.217Z,461.55
2022-11-21T23:40:48.174Z,284.50
2022-11-21T23:43:16.086Z,331.67
2022-11-21T23:45:43.796Z,252.55
2022-11-21T23:48:10.563Z,216.30
2022-11-21T23:50:37.257Z,244.77
2022-11-21T23:53:03.859Z,286.80
2022-11-21T23:55:30.407Z,330.50
2022-11-21T23:57:57.155Z,389.38
